Terminal Aerodrome Forecast
Issued by NWS

Home | Current Version | Previous Version | Text Only | Print | Product List | Glossary On
Versions: 1 2 3 4 5 6 7 8 9 10 11 12 13 14 15 16 17 18 19 20 21 22 23 24 25 26 27 28 29 30 31 32 33
000
FTUS45 KBOU 300411 AAA
TAFAPA
TAF AMD
KAPA 300411Z 3004/3024 17015KT P6SM SCT130
     FM300600 19010KT P6SM SCT250
     FM301400 24005KT P6SM SCT140 SCT250
     FM301700 VRB04KT P6SM FEW090 SCT140 SCT250
     FM302100 16009KT P6SM SCT090 SCT140=

USA.gov is the U.S. government's official web portal to all federal, state and local government web resources and services.